Time,TemperatureF,DewpointF,PressureIn,WindDirection,WindDirectionDegrees,WindSpeedMPH,WindSpeedGustMPH,Humidity,HourlyPrecipIn,Conditions,Clouds,dailyrainin,SoftwareType,DateUTC
2013-02-24 00:00:00,21.6,20.4,30.16,SSW,196,0.0,2.0,95,0.00,,---,0.01,VWS V14.01,2013-02-24 08:00:00,
2013-02-24 00:05:00,21.8,20.6,30.16,SSW,196,0.0,0.0,95,0.00,,---,0.00,VWS V14.01,2013-02-24 08:05:00,
2013-02-24 00:10:00,21.6,20.4,30.17,SSW,196,0.0,0.0,95,0.00,,---,0.00,VWS V14.01,2013-02-24 08:10:00,
2013-02-24 00:15:00,21.6,20.4,30.17,SSW,196,0.0,0.0,95,0.00,,---,0.00,VWS V14.01,2013-02-24 08:15:00,
2013-02-24 00:20:00,21.8,20.6,30.17,SSW,196,0.0,0.0,95,0.00,,---,0.00,VWS V14.01,2013-02-24 08:20:00,
2013-02-24 00:25:00,21.6,20.4,30.17,SSW,196,0.0,0.0,95,0.00,,---,0.00,VWS V14.01,2013-02-24 08:25:00,
2013-02-24 00:30:00,21.5,20.3,30.17,SSW,196,0.0,2.0,95,0.00,,---,0.00,VWS V14.01,2013-02-24 08:30:00,
2013-02-24 00:35:00,21.7,20.5,30.18,SSW,196,0.0,2.0,95,0.00,,---,0.00,VWS V14.01,2013-02-24 08:35:00,
2013-02-24 00:40:00,21.9,20.9,30.18,SSW,196,2.0,2.0,96,0.00,,---,0.00,VWS V14.01,2013-02-24 08:40:00,
2013-02-24 00:45:00,21.8,20.6,30.18,SSW,196,0.0,2.0,95,0.00,,---,0.00,VWS V14.01,2013-02-24 08:45:00,
2013-02-24 00:50:00,21.5,20.3,30.19,SSW,196,0.0,2.0,95,0.00,,---,0.00,VWS V14.01,2013-02-24 08:50:00,
2013-02-24 00:55:00,21.6,20.4,30.19,SSW,196,0.0,2.0,95,0.00,,---,0.00,VWS V14.01,2013-02-24 08:55:00,
2013-02-24 01:00:00,21.3,20.1,30.19,SSW,196,0.0,2.0,95,0.00,,---,0.00,VWS V14.01,2013-02-24 09:00:00,
2013-02-24 01:05:00,21.3,20.1,30.19,SSW,196,0.0,0.0,95,0.00,,---,0.00,VWS V14.01,2013-02-24 09:05:00,
2013-02-24 01:10:00,21.5,20.3,30.19,SSW,196,0.0,1.0,95,0.00,,---,0.00,VWS V14.01,2013-02-24 09:10:00,
2013-02-24 01:15:00,21.8,20.6,30.20,SSW,196,0.0,1.0,95,0.00,,---,0.00,VWS V14.01,2013-02-24 09:15:00,
2013-02-24 01:20:00,22.0,21.0,30.20,SSW,196,0.0,1.0,96,0.00,,---,0.00,VWS V14.01,2013-02-24 09:20:00,
2013-02-24 01:25:00,22.4,21.4,30.20,SSW,196,0.0,1.0,96,0.00,,---,0.00,VWS V14.01,2013-02-24 09:25:00,
2013-02-24 01:30:00,22.4,21.2,30.20,SSW,196,0.0,1.0,95,0.00,,---,0.00,VWS V14.01,2013-02-24 09:30:00,
2013-02-24 01:35:00,22.6,21.6,30.20,SSW,196,0.0,3.0,96,0.00,,---,0.00,VWS V14.01,2013-02-24 09:35:00,
2013-02-24 01:40:00,22.9,21.9,30.20,SSW,196,0.0,3.0,96,0.00,,---,0.00,VWS V14.01,2013-02-24 09:40:00,
2013-02-24 01:45:00,22.7,21.7,30.20,SSW,196,0.0,3.0,96,0.00,,---,0.00,VWS V14.01,2013-02-24 09:45:00,
2013-02-24 01:50:00,22.5,21.3,30.20,South,191,0.0,3.0,95,0.00,,---,0.00,VWS V14.01,2013-02-24 09:50:00,
2013-02-24 01:55:00,22.7,21.7,30.19,South,191,0.0,3.0,96,0.00,,---,0.00,VWS V14.01,2013-02-24 09:55:00,
2013-02-24 02:00:00,22.9,21.9,30.20,South,191,0.0,3.0,96,0.00,,---,0.00,VWS V14.01,2013-02-24 10:00:00,
2013-02-24 02:05:00,23.2,22.2,30.20,South,191,0.0,2.0,96,0.00,,---,0.00,VWS V14.01,2013-02-24 10:05:00,
2013-02-24 02:10:00,23.1,22.1,30.20,South,191,0.0,2.0,96,0.00,,---,0.00,VWS V14.01,2013-02-24 10:10:00,
2013-02-24 02:15:00,23.4,22.4,30.20,SSW,192,0.0,2.0,96,0.00,,---,0.00,VWS V14.01,2013-02-24 10:15:00,
2013-02-24 02:20:00,23.4,22.4,30.21,SSW,192,1.0,2.0,96,0.00,,---,0.00,VWS V14.01,2013-02-24 10:20:00,
2013-02-24 02:25:00,23.4,22.4,30.21,SSW,192,2.0,2.0,96,0.00,,---,0.00,VWS V14.01,2013-02-24 10:25:00,
2013-02-24 02:30:00,23.4,22.4,30.20,SSW,192,0.0,2.0,96,0.00,,---,0.00,VWS V14.01,2013-02-24 10:30:00,
2013-02-24 02:35:00,23.4,22.4,30.20,SSW,194,0.0,2.0,96,0.00,,---,0.00,VWS V14.01,2013-02-24 10:35:00,
2013-02-24 02:40:00,23.5,22.5,30.20,SSW,194,0.0,3.0,96,0.00,,---,0.00,VWS V14.01,2013-02-24 10:40:00,
2013-02-24 02:45:00,23.5,22.5,30.20,SSW,194,1.0,3.0,96,0.00,,---,0.00,VWS V14.01,2013-02-24 10:45:00,
2013-02-24 02:50:00,23.5,22.5,30.20,SSW,194,2.0,3.0,96,0.00,,---,0.00,VWS V14.01,2013-02-24 10:50:00,
2013-02-24 02:55:00,23.6,22.6,30.20,SSW,194,2.0,3.0,96,0.00,,---,0.00,VWS V14.01,2013-02-24 10:55:00,
2013-02-24 03:00:00,23.4,22.2,30.20,SSW,194,2.0,3.0,95,0.00,,---,0.00,VWS V14.01,2013-02-24 11:00:00,
2013-02-24 03:05:00,23.5,22.5,30.20,SW,223,3.0,4.0,96,0.00,,---,0.00,VWS V14.01,2013-02-24 11:05:00,
2013-02-24 03:10:00,23.7,22.7,30.21,SW,223,0.0,4.0,96,0.00,,---,0.00,VWS V14.01,2013-02-24 11:10:00,
2013-02-24 03:15:00,23.8,22.8,30.20,SW,217,3.0,5.0,96,0.00,,---,0.00,VWS V14.01,2013-02-24 11:15:00,
2013-02-24 03:20:00,23.9,22.9,30.20,SW,223,3.0,5.0,96,0.00,,---,0.00,VWS V14.01,2013-02-24 11:20:00,
2013-02-24 03:25:00,23.9,22.9,30.20,SW,221,1.0,5.0,96,0.00,,---,0.00,VWS V14.01,2013-02-24 11:25:00,
2013-02-24 03:30:00,23.8,22.8,30.20,SSW,213,1.0,5.0,96,0.00,,---,0.00,VWS V14.01,2013-02-24 11:30:00,
2013-02-24 03:35:00,23.7,22.7,30.20,SSW,206,1.0,5.0,96,0.00,,---,0.00,VWS V14.01,2013-02-24 11:35:00,
2013-02-24 03:40:00,23.9,22.9,30.21,WSW,238,3.0,5.0,96,0.00,,---,0.00,VWS V14.01,2013-02-24 11:40:00,
2013-02-24 03:45:00,23.9,22.9,30.21,SW,227,1.0,5.0,96,0.00,,---,0.00,VWS V14.01,2013-02-24 11:45:00,
2013-02-24 03:50:00,23.8,22.8,30.21,SW,226,1.0,5.0,96,0.00,,---,0.00,VWS V14.01,2013-02-24 11:50:00,
2013-02-24 03:55:00,23.9,22.9,30.21,SW,219,2.0,6.0,96,0.00,,---,0.00,VWS V14.01,2013-02-24 11:55:00,
2013-02-24 04:00:00,24.0,23.0,30.21,SW,221,2.0,6.0,96,0.00,,---,0.00,VWS V14.01,2013-02-24 12:00:00,
2013-02-24 04:05:00,24.1,23.1,30.21,SW,223,2.0,5.0,96,0.00,,---,0.00,VWS V14.01,2013-02-24 12:05:00,
2013-02-24 04:10:00,24.0,23.0,30.21,SSW,209,1.0,5.0,96,0.00,,---,0.00,VWS V14.01,2013-02-24 12:10:00,
2013-02-24 04:15:00,23.9,22.9,30.21,SE,140,0.0,5.0,96,0.00,,---,0.00,VWS V14.01,2013-02-24 12:15:00,
2013-02-24 04:20:00,23.9,22.9,30.21,SW,228,1.0,5.0,96,0.00,,---,0.00,VWS V14.01,2013-02-24 12:20:00,
2013-02-24 04:25:00,23.7,22.7,30.22,SSW,209,1.0,5.0,96,0.00,,---,0.00,VWS V14.01,2013-02-24 12:25:00,
2013-02-24 04:30:00,23.7,22.7,30.22,SSW,193,0.0,6.0,96,0.00,,---,0.00,VWS V14.01,2013-02-24 12:30:00,
2013-02-24 04:35:00,23.8,22.8,30.22,SW,222,1.0,6.0,96,0.00,,---,0.00,VWS V14.01,2013-02-24 12:35:00,
2013-02-24 04:41:00,23.6,22.6,30.22,SW,232,3.0,6.0,96,0.00,,---,0.00,VWS V14.01,2013-02-24 12:41:00,
2013-02-24 04:46:00,23.6,22.6,30.22,SSW,208,1.0,6.0,96,0.00,,---,0.00,VWS V14.01,2013-02-24 12:46:00,
2013-02-24 04:51:00,23.6,22.6,30.22,SSW,193,1.0,6.0,96,0.00,,---,0.00,VWS V14.01,2013-02-24 12:51:00,
2013-02-24 04:56:00,23.6,22.6,30.22,South,182,1.0,6.0,96,0.00,,---,0.00,VWS V14.01,2013-02-24 12:56:00,
2013-02-24 05:01:00,23.6,22.6,30.22,SSW,207,2.0,6.0,96,0.00,,---,0.00,VWS V14.01,2013-02-24 13:01:00,
2013-02-24 05:06:00,23.5,22.5,30.22,SW,221,1.0,5.0,96,0.00,,---,0.00,VWS V14.01,2013-02-24 13:06:00,
2013-02-24 05:11:00,23.5,22.5,30.22,WSW,237,5.0,5.0,96,0.00,,---,0.00,VWS V14.01,2013-02-24 13:11:00,
2013-02-24 05:16:00,23.6,22.6,30.22,SW,227,1.0,5.0,96,0.00,,---,0.00,VWS V14.01,2013-02-24 13:16:00,
2013-02-24 05:20:00,23.6,22.6,30.22,SW,227,1.0,5.0,96,0.00,,---,0.00,VWS V14.01,2013-02-24 13:20:00,
2013-02-24 05:25:00,23.5,22.5,30.22,SW,216,0.0,5.0,96,0.00,,---,0.00,VWS V14.01,2013-02-24 13:25:00,
2013-02-24 05:30:00,23.4,22.4,30.22,SW,216,2.0,5.0,96,0.00,,---,0.00,VWS V14.01,2013-02-24 13:30:00,
2013-02-24 05:35:00,23.6,22.6,30.22,WSW,238,2.0,5.0,96,0.00,,---,0.00,VWS V14.01,2013-02-24 13:35:00,
2013-02-24 05:40:00,23.6,22.6,30.23,SSW,200,0.0,5.0,96,0.00,,---,0.00,VWS V14.01,2013-02-24 13:40:00,
2013-02-24 05:45:00,23.5,22.5,30.23,SSW,200,1.0,5.0,96,0.00,,---,0.00,VWS V14.01,2013-02-24 13:45:00,
2013-02-24 05:50:00,23.4,22.4,30.23,SSW,200,0.0,5.0,96,0.00,,---,0.00,VWS V14.01,2013-02-24 13:50:00,
2013-02-24 05:55:00,23.4,22.4,30.23,SSW,200,0.0,5.0,96,0.00,,---,0.00,VWS V14.01,2013-02-24 13:55:00,
2013-02-24 06:00:00,23.3,22.3,30.23,SSW,200,0.0,5.0,96,0.00,,---,0.00,VWS V14.01,2013-02-24 14:00:00,
2013-02-24 06:05:00,23.2,22.2,30.23,SSW,200,2.0,2.0,96,0.00,,---,0.00,VWS V14.01,2013-02-24 14:05:00,
2013-02-24 06:10:00,23.2,22.2,30.23,SSW,200,0.0,2.0,96,0.00,,---,0.00,VWS V14.01,2013-02-24 14:10:00,
2013-02-24 06:15:00,23.1,22.1,30.23,SSW,200,0.0,2.0,96,0.00,,---,0.00,VWS V14.01,2013-02-24 14:15:00,
2013-02-24 06:21:00,23.1,22.1,30.23,SSW,200,0.0,3.0,96,0.00,,---,0.00,VWS V14.01,2013-02-24 14:21:00,
2013-02-24 06:26:00,23.1,22.1,30.23,SSW,200,0.0,3.0,96,0.00,,---,0.00,VWS V14.01,2013-02-24 14:26:00,
2013-02-24 06:31:00,23.1,22.1,30.23,SSW,200,0.0,3.0,96,0.00,,---,0.00,VWS V14.01,2013-02-24 14:31:00,
2013-02-24 06:36:00,23.0,21.8,30.23,SSW,200,0.0,3.0,95,0.00,,---,0.00,VWS V14.01,2013-02-24 14:36:00,
2013-02-24 06:41:00,22.9,21.9,30.23,SSW,200,0.0,3.0,96,0.00,,---,0.00,VWS V14.01,2013-02-24 14:41:00,
2013-02-24 06:46:00,22.2,21.0,30.23,SSW,200,0.0,3.0,95,0.00,,---,0.00,VWS V14.01,2013-02-24 14:46:00,
2013-02-24 06:51:00,22.2,21.0,30.23,SSW,200,0.0,3.0,95,0.00,,---,0.00,VWS V14.01,2013-02-24 14:51:00,
2013-02-24 06:56:00,22.6,21.6,30.23,SSW,200,1.0,3.0,96,0.00,,---,0.00,VWS V14.01,2013-02-24 14:56:00,
2013-02-24 07:01:00,22.9,21.9,30.24,SSW,212,0.0,3.0,96,0.00,,---,0.00,VWS V14.01,2013-02-24 15:01:00,
2013-02-24 07:06:00,22.8,21.8,30.24,SSW,212,0.0,0.0,96,0.00,,---,0.00,VWS V14.01,2013-02-24 15:06:00,
2013-02-24 07:11:00,22.9,21.9,30.24,SSW,212,1.0,2.0,96,0.00,,---,0.00,VWS V14.01,2013-02-24 15:11:00,
2013-02-24 07:16:00,23.2,22.2,30.24,SSW,212,0.0,2.0,96,0.00,,---,0.00,VWS V14.01,2013-02-24 15:16:00,
2013-02-24 07:21:00,23.4,22.4,30.24,SSW,212,0.0,2.0,96,0.00,,---,0.00,VWS V14.01,2013-02-24 15:21:00,
2013-02-24 07:26:00,23.5,22.5,30.24,SSW,192,1.0,2.0,96,0.00,,---,0.00,VWS V14.01,2013-02-24 15:26:00,
2013-02-24 07:31:00,23.7,22.7,30.24,SSW,192,1.0,2.0,96,0.00,,---,0.00,VWS V14.01,2013-02-24 15:31:00,
2013-02-24 07:36:00,23.8,22.8,30.25,SSW,192,0.0,3.0,96,0.00,,---,0.00,VWS V14.01,2013-02-24 15:36:00,
2013-02-24 07:41:00,24.2,23.2,30.25,WSW,243,0.0,3.0,96,0.00,,---,0.00,VWS V14.01,2013-02-24 15:41:00,
2013-02-24 07:46:00,24.5,23.5,30.25,SSW,198,3.0,3.0,96,0.00,,---,0.00,VWS V14.01,2013-02-24 15:46:00,
2013-02-24 07:51:00,24.7,23.7,30.25,South,183,1.0,6.0,96,0.00,,---,0.00,VWS V14.01,2013-02-24 15:51:00,
2013-02-24 07:56:00,25.0,24.0,30.25,SW,222,2.0,6.0,96,0.00,,---,0.00,VWS V14.01,2013-02-24 15:56:00,
2013-02-24 08:01:00,25.3,24.3,30.25,SW,218,0.0,6.0,96,0.00,,---,0.00,VWS V14.01,2013-02-24 16:01:00,
2013-02-24 08:06:00,25.8,24.8,30.25,South,183,2.0,3.0,96,0.00,,---,0.00,VWS V14.01,2013-02-24 16:06:00,
2013-02-24 08:11:00,26.2,25.2,30.25,SW,230,2.0,5.0,96,0.00,,---,0.00,VWS V14.01,2013-02-24 16:11:00,
2013-02-24 08:16:00,26.5,25.5,30.25,SW,232,2.0,5.0,96,0.00,,---,0.00,VWS V14.01,2013-02-24 16:16:00,
2013-02-24 08:21:00,26.8,25.8,30.26,SSE,163,2.0,5.0,96,0.00,,---,0.00,VWS V14.01,2013-02-24 16:21:00,
2013-02-24 08:26:00,27.1,26.1,30.25,SW,229,1.0,5.0,96,0.00,,---,0.00,VWS V14.01,2013-02-24 16:26:00,
2013-02-24 08:31:00,27.4,26.2,30.25,SW,217,3.0,6.0,95,0.00,,---,0.00,VWS V14.01,2013-02-24 16:31:00,
2013-02-24 08:36:00,27.7,26.5,30.25,SSW,192,0.0,9.0,95,0.00,,---,0.00,VWS V14.01,2013-02-24 16:36:00,
2013-02-24 08:41:00,27.9,26.7,30.26,SSW,213,3.0,9.0,95,0.00,,---,0.00,VWS V14.01,2013-02-24 16:41:00,
2013-02-24 08:46:00,28.1,26.6,30.26,SW,215,1.0,9.0,94,0.00,,---,0.00,VWS V14.01,2013-02-24 16:46:00,
2013-02-24 08:51:00,28.9,27.4,30.26,SE,141,0.0,9.0,94,0.00,,---,0.00,VWS V14.01,2013-02-24 16:51:00,
2013-02-24 08:56:00,29.6,27.6,30.25,SSE,158,5.0,9.0,92,0.00,,---,0.00,VWS V14.01,2013-02-24 16:56:00,
2013-02-24 09:01:00,29.5,27.2,30.26,South,170,2.0,2.0,91,0.00,,---,0.00,VWS V14.01,2013-02-24 17:01:00,
2013-02-24 09:06:00,29.4,27.1,30.26,SSW,213,1.0,5.0,91,0.00,,---,0.00,VWS V14.01,2013-02-24 17:06:00,
2013-02-24 09:11:00,29.6,27.3,30.26,South,176,5.0,8.0,91,0.00,,---,0.00,VWS V14.01,2013-02-24 17:11:00,
2013-02-24 09:16:00,29.9,27.6,30.26,SSE,165,6.0,8.0,91,0.00,,---,0.00,VWS V14.01,2013-02-24 17:16:00,
2013-02-24 09:21:00,29.8,27.2,30.26,SSW,209,4.0,8.0,90,0.00,,---,0.00,VWS V14.01,2013-02-24 17:21:00,
2013-02-24 09:26:00,29.9,27.6,30.26,South,190,2.0,8.0,91,0.00,,---,0.00,VWS V14.01,2013-02-24 17:26:00,
2013-02-24 09:31:00,30.2,27.9,30.26,South,181,4.0,8.0,91,0.00,,---,0.00,VWS V14.01,2013-02-24 17:31:00,
2013-02-24 09:36:00,30.2,27.6,30.26,SSW,207,0.0,8.0,90,0.00,,---,0.00,VWS V14.01,2013-02-24 17:36:00,
2013-02-24 09:41:00,30.2,27.6,30.26,SSW,194,2.0,8.0,90,0.00,,---,0.00,VWS V14.01,2013-02-24 17:41:00,
2013-02-24 09:46:00,30.6,28.0,30.26,SSW,196,5.0,8.0,90,0.00,,---,0.00,VWS V14.01,2013-02-24 17:46:00,
2013-02-24 09:51:00,31.1,28.2,30.26,SW,220,8.0,8.0,89,0.00,,---,0.00,VWS V14.01,2013-02-24 17:51:00,
2013-02-24 09:56:00,31.6,28.7,30.26,WSW,243,3.0,10.0,89,0.00,,---,0.00,VWS V14.01,2013-02-24 17:56:00,
2013-02-24 10:01:00,31.8,28.4,30.26,SSE,167,4.0,5.0,87,0.01,,---,0.01,VWS V14.01,2013-02-24 18:01:00,
2013-02-24 10:06:00,31.8,28.7,30.26,SSE,167,0.0,7.0,88,0.01,,---,0.01,VWS V14.01,2013-02-24 18:06:00,
2013-02-24 10:11:00,32.2,28.8,30.26,SSW,213,4.0,8.0,87,0.01,,---,0.01,VWS V14.01,2013-02-24 18:11:00,
2013-02-24 10:16:00,32.7,29.3,30.26,SW,218,7.0,10.0,87,0.01,,---,0.01,VWS V14.01,2013-02-24 18:16:00,
2013-02-24 10:21:00,32.5,29.1,30.26,WSW,240,9.0,10.0,87,0.01,,---,0.01,VWS V14.01,2013-02-24 18:21:00,
2013-02-24 10:26:00,33.0,29.6,30.26,SW,236,6.0,10.0,87,0.01,,---,0.01,VWS V14.01,2013-02-24 18:26:00,
2013-02-24 10:31:00,33.4,29.7,30.26,South,177,4.0,10.0,86,0.01,,---,0.01,VWS V14.01,2013-02-24 18:31:00,
2013-02-24 10:36:00,33.1,29.4,30.26,SW,236,6.0,12.0,86,0.01,,---,0.01,VWS V14.01,2013-02-24 18:36:00,
2013-02-24 10:41:00,33.5,29.8,30.26,SW,230,5.0,12.0,86,0.01,,---,0.01,VWS V14.01,2013-02-24 18:41:00,
2013-02-24 10:46:00,33.5,29.5,30.26,SSW,194,1.0,12.0,85,0.01,,---,0.01,VWS V14.01,2013-02-24 18:46:00,
2013-02-24 10:51:00,33.8,29.8,30.26,SW,223,2.0,12.0,85,0.01,,---,0.01,VWS V14.01,2013-02-24 18:51:00,
2013-02-24 10:56:00,34.1,30.1,30.26,SW,223,5.0,12.0,85,0.01,,---,0.01,VWS V14.01,2013-02-24 18:56:00,
2013-02-24 11:01:00,34.1,30.1,30.26,SW,231,4.0,4.0,85,0.00,,---,0.01,VWS V14.01,2013-02-24 19:01:00,
2013-02-24 11:06:00,34.2,30.5,30.26,SSE,167,0.0,8.0,86,0.00,,---,0.01,VWS V14.01,2013-02-24 19:06:00,
2013-02-24 11:11:00,34.4,30.1,30.26,SW,228,3.0,11.0,84,0.00,,---,0.01,VWS V14.01,2013-02-24 19:11:00,
2013-02-24 11:16:00,34.7,30.1,30.26,SW,236,5.0,12.0,83,0.00,,---,0.01,VWS V14.01,2013-02-24 19:16:00,
2013-02-24 11:21:00,35.2,30.3,30.26,SSW,213,9.0,12.0,82,0.00,,---,0.01,VWS V14.01,2013-02-24 19:21:00,
2013-02-24 11:26:00,35.1,29.9,30.26,WSW,238,4.0,12.0,81,0.00,,---,0.01,VWS V14.01,2013-02-24 19:26:00,
2013-02-24 11:31:00,35.3,30.4,30.26,SW,236,6.0,12.0,82,0.00,,---,0.01,VWS V14.01,2013-02-24 19:31:00,
2013-02-24 11:36:00,35.5,30.3,30.26,SW,230,3.0,12.0,81,0.00,,---,0.01,VWS V14.01,2013-02-24 19:36:00,
2013-02-24 11:41:00,35.6,30.0,30.26,SW,232,5.0,12.0,80,0.00,,---,0.01,VWS V14.01,2013-02-24 19:41:00,
2013-02-24 11:46:00,35.6,30.0,30.26,SSW,212,3.0,12.0,80,0.00,,---,0.01,VWS V14.01,2013-02-24 19:46:00,
2013-02-24 11:51:00,35.9,30.3,30.25,SSW,193,3.0,12.0,80,0.00,,---,0.01,VWS V14.01,2013-02-24 19:51:00,
2013-02-24 11:56:00,36.2,30.0,30.25,SSW,202,3.0,12.0,78,0.00,,---,0.01,VWS V14.01,2013-02-24 19:56:00,
2013-02-24 12:01:00,36.1,29.6,30.25,South,190,3.0,12.0,77,0.00,,---,0.01,VWS V14.01,2013-02-24 20:01:00,
2013-02-24 12:06:00,36.2,30.0,30.25,SE,137,6.0,10.0,78,0.00,,---,0.01,VWS V14.01,2013-02-24 20:06:00,
2013-02-24 12:11:00,36.3,29.8,30.25,WSW,257,3.0,12.0,77,0.00,,---,0.01,VWS V14.01,2013-02-24 20:11:00,
2013-02-24 12:16:00,36.4,29.6,30.25,South,184,2.0,12.0,76,0.00,,---,0.01,VWS V14.01,2013-02-24 20:16:00,
2013-02-24 12:21:00,36.7,30.2,30.24,SSE,159,5.0,12.0,77,0.00,,---,0.01,VWS V14.01,2013-02-24 20:21:00,
2013-02-24 12:26:00,36.8,30.3,30.24,SSW,194,3.0,12.0,77,0.00,,---,0.01,VWS V14.01,2013-02-24 20:26:00,
2013-02-24 12:31:00,36.7,29.9,30.24,SW,215,4.0,12.0,76,0.00,,---,0.01,VWS V14.01,2013-02-24 20:31:00,
2013-02-24 12:36:00,36.7,29.9,30.24,SW,224,7.0,12.0,76,0.00,,---,0.01,VWS V14.01,2013-02-24 20:36:00,
2013-02-24 12:41:00,36.6,29.4,30.24,SSE,168,6.0,12.0,75,0.00,,---,0.01,VWS V14.01,2013-02-24 20:41:00,
2013-02-24 12:46:00,36.6,29.8,30.24,South,182,6.0,12.0,76,0.00,,---,0.01,VWS V14.01,2013-02-24 20:46:00,
2013-02-24 12:51:00,36.5,29.7,30.24,SSW,194,2.0,13.0,76,0.00,,---,0.01,VWS V14.01,2013-02-24 20:51:00,
2013-02-24 12:56:00,36.5,30.0,30.24,WSW,256,4.0,13.0,77,0.00,,---,0.01,VWS V14.01,2013-02-24 20:56:00,
2013-02-24 13:01:00,36.6,30.4,30.24,SSW,200,2.0,13.0,78,0.00,,---,0.01,VWS V14.01,2013-02-24 21:01:00,
2013-02-24 13:06:00,36.7,30.2,30.24,SW,223,9.0,9.0,77,0.00,,---,0.01,VWS V14.01,2013-02-24 21:06:00,
2013-02-24 13:11:00,36.6,30.1,30.23,SW,234,5.0,9.0,77,0.00,,---,0.01,VWS V14.01,2013-02-24 21:11:00,
2013-02-24 13:16:00,36.6,29.8,30.23,South,175,8.0,9.0,76,0.00,,---,0.01,VWS V14.01,2013-02-24 21:16:00,
2013-02-24 13:21:00,36.6,29.8,30.23,SSW,192,3.0,9.0,76,0.00,,---,0.01,VWS V14.01,2013-02-24 21:21:00,
2013-02-24 13:26:00,36.8,29.6,30.23,SW,234,4.0,11.0,75,0.00,,---,0.01,VWS V14.01,2013-02-24 21:26:00,
2013-02-24 13:31:00,36.8,29.6,30.23,SSW,202,5.0,11.0,75,0.00,,---,0.01,VWS V14.01,2013-02-24 21:31:00,
2013-02-24 13:36:00,36.8,29.3,30.23,SW,223,3.0,11.0,74,0.00,,---,0.01,VWS V14.01,2013-02-24 21:36:00,
2013-02-24 13:41:00,37.0,29.8,30.22,SW,219,7.0,11.0,75,0.00,,---,0.01,VWS V14.01,2013-02-24 21:41:00,
2013-02-24 13:46:00,37.3,30.1,30.22,SSW,211,5.0,11.0,75,0.00,,---,0.01,VWS V14.01,2013-02-24 21:46:00,
2013-02-24 13:51:00,37.1,29.6,30.22,SSW,198,2.0,11.0,74,0.00,,---,0.01,VWS V14.01,2013-02-24 21:51:00,
2013-02-24 13:56:00,37.0,29.5,30.21,SW,227,4.0,11.0,74,0.00,,---,0.01,VWS V14.01,2013-02-24 21:56:00,
2013-02-24 14:01:00,37.1,29.6,30.21,South,191,3.0,11.0,74,0.00,,---,0.01,VWS V14.01,2013-02-24 22:01:00,
2013-02-24 14:06:00,37.2,29.4,30.21,SW,217,2.0,8.0,73,0.00,,---,0.01,VWS V14.01,2013-02-24 22:06:00,
2013-02-24 14:11:00,37.3,29.5,30.21,SE,146,6.0,10.0,73,0.00,,---,0.01,VWS V14.01,2013-02-24 22:11:00,
2013-02-24 14:16:00,37.4,29.9,30.21,WSW,244,2.0,10.0,74,0.00,,---,0.01,VWS V14.01,2013-02-24 22:16:00,
2013-02-24 14:21:00,37.3,30.1,30.21,SSW,213,7.0,12.0,75,0.00,,---,0.01,VWS V14.01,2013-02-24 22:21:00,
2013-02-24 14:26:00,37.1,29.6,30.21,SSW,208,3.0,12.0,74,0.00,,---,0.01,VWS V14.01,2013-02-24 22:26:00,
2013-02-24 14:31:00,37.1,29.9,30.20,SSW,211,0.0,12.0,75,0.00,,---,0.01,VWS V14.01,2013-02-24 22:31:00,
2013-02-24 14:36:00,37.3,30.4,30.21,SW,217,4.0,12.0,76,0.00,,---,0.01,VWS V14.01,2013-02-24 22:36:00,
2013-02-24 14:41:00,37.3,30.1,30.20,SW,221,1.0,12.0,75,0.00,,---,0.01,VWS V14.01,2013-02-24 22:41:00,
2013-02-24 14:46:00,37.1,29.6,30.20,South,178,6.0,12.0,74,0.00,,---,0.01,VWS V14.01,2013-02-24 22:46:00,
2013-02-24 14:51:00,37.2,30.0,30.20,SW,222,7.0,12.0,75,0.00,,---,0.01,VWS V14.01,2013-02-24 22:51:00,
2013-02-24 14:56:00,37.3,29.8,30.20,SW,215,2.0,12.0,74,0.00,,---,0.01,VWS V14.01,2013-02-24 22:56:00,
2013-02-24 15:01:00,37.1,29.9,30.20,SSE,158,4.0,12.0,75,0.00,,---,0.01,VWS V14.01,2013-02-24 23:01:00,
2013-02-24 15:06:00,37.2,29.7,30.20,SE,130,5.0,10.0,74,0.00,,---,0.01,VWS V14.01,2013-02-24 23:06:00,
2013-02-24 15:11:00,37.1,29.9,30.20,SSE,153,0.0,10.0,75,0.00,,---,0.01,VWS V14.01,2013-02-24 23:11:00,
2013-02-24 15:16:00,37.3,29.8,30.20,SSW,196,4.0,10.0,74,0.00,,---,0.01,VWS V14.01,2013-02-24 23:16:00,
2013-02-24 15:21:00,37.4,30.2,30.20,SSW,211,0.0,10.0,75,0.00,,---,0.01,VWS V14.01,2013-02-24 23:21:00,
2013-02-24 15:26:00,37.4,30.2,30.20,South,181,2.0,10.0,75,0.00,,---,0.01,VWS V14.01,2013-02-24 23:26:00,
2013-02-24 15:31:00,37.3,29.8,30.20,SSW,208,6.0,10.0,74,0.00,,---,0.01,VWS V14.01,2013-02-24 23:31:00,
2013-02-24 15:36:00,37.4,30.2,30.20,SSW,203,1.0,10.0,75,0.00,,---,0.01,VWS V14.01,2013-02-24 23:36:00,
2013-02-24 15:41:00,37.4,30.2,30.20,SSW,199,0.0,10.0,75,0.00,,---,0.01,VWS V14.01,2013-02-24 23:41:00,
2013-02-24 15:46:00,37.4,30.2,30.20,South,184,2.0,10.0,75,0.00,,---,0.01,VWS V14.01,2013-02-24 23:46:00,
2013-02-24 15:51:00,37.3,30.1,30.19,SSW,198,3.0,10.0,75,0.00,,---,0.01,VWS V14.01,2013-02-24 23:51:00,
2013-02-24 15:56:00,37.3,30.1,30.19,SSW,194,2.0,10.0,75,0.00,,---,0.01,VWS V14.01,2013-02-24 23:56:00,
2013-02-24 16:01:00,37.2,30.4,30.19,SSW,193,1.0,10.0,76,0.00,,---,0.01,VWS V14.01,2013-02-25 00:01:00,
2013-02-24 16:06:00,37.4,30.2,30.18,South,181,2.0,7.0,75,0.00,,---,0.01,VWS V14.01,2013-02-25 00:06:00,
2013-02-24 16:11:00,37.4,30.2,30.18,South,183,7.0,7.0,75,0.00,,---,0.01,VWS V14.01,2013-02-25 00:11:00,
2013-02-24 16:16:00,37.3,30.1,30.18,SSW,209,2.0,9.0,75,0.00,,---,0.01,VWS V14.01,2013-02-25 00:16:00,
2013-02-24 16:21:00,37.1,29.9,30.18,South,189,3.0,9.0,75,0.00,,---,0.01,VWS V14.01,2013-02-25 00:21:00,
2013-02-24 16:26:00,37.1,29.6,30.18,SSW,206,1.0,9.0,74,0.00,,---,0.01,VWS V14.01,2013-02-25 00:26:00,
2013-02-24 16:31:00,36.7,29.5,30.18,South,183,2.0,9.0,75,0.00,,---,0.01,VWS V14.01,2013-02-25 00:31:00,
2013-02-24 16:36:00,36.5,29.7,30.18,South,183,1.0,9.0,76,0.00,,---,0.01,VWS V14.01,2013-02-25 00:36:00,
2013-02-24 16:41:00,36.3,29.8,30.18,South,187,1.0,9.0,77,0.00,,---,0.01,VWS V14.01,2013-02-25 00:41:00,
2013-02-24 16:46:00,36.2,29.7,30.17,South,184,0.0,9.0,77,0.00,,---,0.01,VWS V14.01,2013-02-25 00:46:00,
2013-02-24 16:51:00,36.1,29.6,30.17,South,178,1.0,9.0,77,0.00,,---,0.01,VWS V14.01,2013-02-25 00:51:00,
2013-02-24 16:56:00,35.5,29.3,30.17,South,178,0.0,9.0,78,0.00,,---,0.01,VWS V14.01,2013-02-25 00:56:00,
2013-02-24 17:01:00,35.2,29.4,30.17,South,178,0.0,9.0,79,0.00,,---,0.01,VWS V14.01,2013-02-25 01:01:00,
2013-02-24 17:06:00,34.8,29.0,30.17,South,178,0.0,2.0,79,0.00,,---,0.01,VWS V14.01,2013-02-25 01:06:00,
2013-02-24 17:11:00,34.5,29.0,30.17,South,178,0.0,2.0,80,0.00,,---,0.01,VWS V14.01,2013-02-25 01:11:00,
2013-02-24 17:16:00,33.5,28.9,30.17,South,178,0.0,2.0,83,0.00,,---,0.01,VWS V14.01,2013-02-25 01:16:00,
2013-02-24 17:21:00,33.1,28.5,30.17,South,178,0.0,2.0,83,0.00,,---,0.01,VWS V14.01,2013-02-25 01:21:00,
2013-02-24 17:26:00,32.8,28.5,30.17,South,178,0.0,2.0,84,0.00,,---,0.01,VWS V14.01,2013-02-25 01:26:00,
2013-02-24 17:31:00,32.7,28.4,30.16,South,178,0.0,2.0,84,0.00,,---,0.01,VWS V14.01,2013-02-25 01:31:00,
2013-02-24 17:36:00,32.4,28.7,30.16,South,178,0.0,2.0,86,0.00,,---,0.01,VWS V14.01,2013-02-25 01:36:00,
2013-02-24 17:41:00,31.9,28.2,30.15,South,178,0.0,2.0,86,0.00,,---,0.01,VWS V14.01,2013-02-25 01:41:00,
2013-02-24 17:46:00,31.7,28.3,30.15,South,178,0.0,2.0,87,0.00,,---,0.01,VWS V14.01,2013-02-25 01:46:00,
2013-02-24 17:51:00,31.5,28.1,30.15,South,178,0.0,2.0,87,0.00,,---,0.01,VWS V14.01,2013-02-25 01:51:00,
2013-02-24 17:56:00,31.0,27.9,30.15,South,178,0.0,2.0,88,0.00,,---,0.01,VWS V14.01,2013-02-25 01:56:00,
2013-02-24 18:01:00,30.5,27.6,30.15,South,178,0.0,2.0,89,0.00,,---,0.01,VWS V14.01,2013-02-25 02:01:00,
2013-02-24 18:06:00,30.2,27.6,30.15,South,178,0.0,0.0,90,0.00,,---,0.01,VWS V14.01,2013-02-25 02:06:00,
2013-02-24 18:11:00,29.9,27.3,30.15,South,178,0.0,0.0,90,0.00,,---,0.01,VWS V14.01,2013-02-25 02:11:00,
2013-02-24 18:16:00,29.7,27.4,30.15,South,178,0.0,0.0,91,0.00,,---,0.01,VWS V14.01,2013-02-25 02:16:00,
2013-02-24 18:21:00,29.7,27.4,30.15,South,178,0.0,0.0,91,0.00,,---,0.01,VWS V14.01,2013-02-25 02:21:00,
2013-02-24 18:26:00,29.6,27.3,30.15,South,178,0.0,0.0,91,0.00,,---,0.01,VWS V14.01,2013-02-25 02:26:00,
2013-02-24 18:31:00,29.7,27.4,30.14,South,178,0.0,0.0,91,0.00,,---,0.01,VWS V14.01,2013-02-25 02:31:00,
2013-02-24 18:36:00,29.6,27.3,30.14,South,178,0.0,0.0,91,0.00,,---,0.01,VWS V14.01,2013-02-25 02:36:00,
2013-02-24 18:41:00,29.6,27.6,30.14,South,178,0.0,0.0,92,0.00,,---,0.01,VWS V14.01,2013-02-25 02:41:00,
2013-02-24 18:46:00,29.6,27.6,30.14,South,178,0.0,0.0,92,0.00,,---,0.01,VWS V14.01,2013-02-25 02:46:00,
2013-02-24 18:51:00,29.7,27.7,30.14,South,178,0.0,0.0,92,0.00,,---,0.01,VWS V14.01,2013-02-25 02:51:00,
2013-02-24 18:56:00,29.7,27.4,30.14,South,178,0.0,0.0,91,0.00,,---,0.01,VWS V14.01,2013-02-25 02:56:00,
2013-02-24 19:01:00,29.8,27.8,30.14,South,178,0.0,0.0,92,0.00,,---,0.01,VWS V14.01,2013-02-25 03:01:00,
2013-02-24 19:06:00,30.1,28.1,30.14,South,178,0.0,0.0,92,0.00,,---,0.01,VWS V14.01,2013-02-25 03:06:00,
2013-02-24 19:11:00,30.2,28.4,30.14,South,178,0.0,0.0,93,0.00,,---,0.01,VWS V14.01,2013-02-25 03:11:00,
2013-02-24 19:16:00,30.3,28.3,30.14,South,178,0.0,0.0,92,0.00,,---,0.01,VWS V14.01,2013-02-25 03:16:00,
2013-02-24 19:21:00,30.4,28.4,30.13,South,178,0.0,0.0,92,0.00,,---,0.01,VWS V14.01,2013-02-25 03:21:00,
2013-02-24 19:26:00,30.6,28.6,30.13,South,178,0.0,0.0,92,0.00,,---,0.01,VWS V14.01,2013-02-25 03:26:00,
2013-02-24 19:31:00,30.7,28.7,30.13,South,178,0.0,0.0,92,0.00,,---,0.01,VWS V14.01,2013-02-25 03:31:00,
2013-02-24 19:36:00,31.0,28.7,30.13,South,178,0.0,0.0,91,0.00,,---,0.01,VWS V14.01,2013-02-25 03:36:00,
2013-02-24 19:41:00,31.4,28.8,30.13,South,178,0.0,0.0,90,0.00,,---,0.01,VWS V14.01,2013-02-25 03:41:00,
2013-02-24 19:46:00,31.6,29.0,30.12,South,178,0.0,0.0,90,0.00,,---,0.01,VWS V14.01,2013-02-25 03:46:00,
2013-02-24 19:51:00,31.6,29.0,30.12,South,178,0.0,0.0,90,0.00,,---,0.01,VWS V14.01,2013-02-25 03:51:00,
2013-02-24 19:56:00,31.7,29.1,30.12,South,178,0.0,0.0,90,0.00,,---,0.01,VWS V14.01,2013-02-25 03:56:00,
2013-02-24 20:01:00,31.9,29.3,30.12,South,178,0.0,0.0,90,0.00,,---,0.01,VWS V14.01,2013-02-25 04:01:00,
2013-02-24 20:06:00,32.2,29.3,30.11,South,178,0.0,1.0,89,0.00,,---,0.01,VWS V14.01,2013-02-25 04:06:00,
2013-02-24 20:11:00,32.2,29.3,30.11,South,178,0.0,2.0,89,0.00,,---,0.01,VWS V14.01,2013-02-25 04:11:00,
2013-02-24 20:16:00,32.3,29.1,30.10,South,178,0.0,2.0,88,0.00,,---,0.01,VWS V14.01,2013-02-25 04:16:00,
2013-02-24 20:21:00,32.1,29.2,30.10,South,178,0.0,2.0,89,0.00,,---,0.01,VWS V14.01,2013-02-25 04:21:00,
2013-02-24 20:26:00,32.0,29.1,30.10,South,178,0.0,2.0,89,0.00,,---,0.01,VWS V14.01,2013-02-25 04:26:00,
2013-02-24 20:31:00,32.1,29.2,30.10,South,178,0.0,2.0,89,0.00,,---,0.01,VWS V14.01,2013-02-25 04:31:00,
2013-02-24 20:36:00,32.1,29.2,30.09,South,178,0.0,2.0,89,0.00,,---,0.01,VWS V14.01,2013-02-25 04:36:00,
2013-02-24 20:41:00,32.3,29.1,30.09,South,178,0.0,2.0,88,0.00,,---,0.01,VWS V14.01,2013-02-25 04:41:00,
2013-02-24 20:46:00,32.2,29.0,30.09,South,178,0.0,2.0,88,0.00,,---,0.01,VWS V14.01,2013-02-25 04:46:00,
2013-02-24 20:51:00,32.2,29.0,30.09,South,178,0.0,2.0,88,0.00,,---,0.01,VWS V14.01,2013-02-25 04:51:00,
2013-02-24 20:56:00,32.1,29.2,30.09,South,178,0.0,2.0,89,0.00,,---,0.01,VWS V14.01,2013-02-25 04:56:00,
2013-02-24 21:00:00,32.2,29.0,30.08,South,178,0.0,2.0,88,0.00,,---,0.01,VWS V14.01,2013-02-25 05:00:00,
2013-02-24 21:05:00,32.2,29.3,30.08,South,178,0.0,0.0,89,0.00,,---,0.01,VWS V14.01,2013-02-25 05:05:00,
2013-02-24 21:10:00,32.0,29.1,30.08,South,178,0.0,1.0,89,0.00,,---,0.01,VWS V14.01,2013-02-25 05:10:00,
2013-02-24 21:15:00,32.0,29.1,30.08,South,178,0.0,1.0,89,0.00,,---,0.01,VWS V14.01,2013-02-25 05:15:00,
2013-02-24 21:20:00,32.0,29.1,30.08,South,178,0.0,1.0,89,0.00,,---,0.01,VWS V14.01,2013-02-25 05:20:00,
2013-02-24 21:25:00,31.9,29.3,30.08,South,178,0.0,1.0,90,0.00,,---,0.01,VWS V14.01,2013-02-25 05:25:00,
2013-02-24 21:30:00,32.0,29.1,30.08,South,178,0.0,1.0,89,0.00,,---,0.01,VWS V14.01,2013-02-25 05:30:00,
2013-02-24 21:35:00,32.2,29.3,30.07,South,178,0.0,1.0,89,0.00,,---,0.01,VWS V14.01,2013-02-25 05:35:00,
2013-02-24 21:40:00,32.3,29.1,30.07,South,178,0.0,1.0,88,0.00,,---,0.01,VWS V14.01,2013-02-25 05:40:00,
2013-02-24 21:45:00,32.2,29.3,30.07,South,178,0.0,4.0,89,0.00,,---,0.01,VWS V14.01,2013-02-25 05:45:00,
2013-02-24 21:50:00,32.1,29.2,30.07,South,178,0.0,4.0,89,0.00,,---,0.01,VWS V14.01,2013-02-25 05:50:00,
2013-02-24 21:55:00,32.2,29.3,30.07,South,178,0.0,4.0,89,0.00,,---,0.01,VWS V14.01,2013-02-25 05:55:00,
2013-02-24 22:00:00,32.2,29.0,30.06,South,178,0.0,4.0,88,0.00,,---,0.01,VWS V14.01,2013-02-25 06:00:00,
2013-02-24 22:05:00,32.1,29.0,30.06,South,178,0.0,0.0,88,0.00,,---,0.01,VWS V14.01,2013-02-25 06:05:00,
2013-02-24 22:10:00,32.0,28.9,30.06,South,178,0.0,0.0,88,0.00,,---,0.01,VWS V14.01,2013-02-25 06:10:00,
2013-02-24 22:15:00,32.1,29.0,30.06,South,178,0.0,0.0,88,0.00,,---,0.01,VWS V14.01,2013-02-25 06:15:00,
2013-02-24 22:20:00,32.1,29.0,30.06,South,178,0.0,0.0,88,0.00,,---,0.01,VWS V14.01,2013-02-25 06:20:00,
2013-02-24 22:25:00,32.1,29.0,30.05,South,178,0.0,0.0,88,0.00,,---,0.01,VWS V14.01,2013-02-25 06:25:00,
2013-02-24 22:30:00,32.1,29.0,30.05,South,178,1.0,1.0,88,0.00,,---,0.01,VWS V14.01,2013-02-25 06:30:00,
2013-02-24 22:35:00,32.1,29.0,30.05,South,178,0.0,1.0,88,0.00,,---,0.01,VWS V14.01,2013-02-25 06:35:00,
2013-02-24 22:40:00,32.1,29.0,30.04,South,178,0.0,1.0,88,0.00,,---,0.01,VWS V14.01,2013-02-25 06:40:00,
2013-02-24 22:45:00,31.9,28.8,30.04,South,178,0.0,1.0,88,0.00,,---,0.01,VWS V14.01,2013-02-25 06:45:00,
2013-02-24 22:50:00,31.5,28.4,30.03,South,178,0.0,2.0,88,0.00,,---,0.01,VWS V14.01,2013-02-25 06:50:00,
2013-02-24 22:55:00,31.4,28.3,30.03,South,178,0.0,2.0,88,0.00,,---,0.01,VWS V14.01,2013-02-25 06:55:00,
2013-02-24 23:00:00,31.2,28.1,30.03,South,178,0.0,2.0,88,0.00,,---,0.01,VWS V14.01,2013-02-25 07:00:00,
2013-02-24 23:05:00,31.0,27.9,30.02,South,178,0.0,0.0,88,0.00,,---,0.01,VWS V14.01,2013-02-25 07:05:00,
2013-02-24 23:10:00,30.8,28.0,30.02,South,178,0.0,0.0,89,0.00,,---,0.01,VWS V14.01,2013-02-25 07:10:00,
2013-02-24 23:15:00,30.7,27.9,30.02,South,178,0.0,0.0,89,0.00,,---,0.01,VWS V14.01,2013-02-25 07:15:00,
2013-02-24 23:20:00,30.6,27.5,30.02,South,178,0.0,0.0,88,0.00,,---,0.01,VWS V14.01,2013-02-25 07:20:00,
2013-02-24 23:25:00,30.3,27.5,30.01,South,178,0.0,0.0,89,0.00,,---,0.01,VWS V14.01,2013-02-25 07:25:00,
2013-02-24 23:30:00,30.1,27.5,30.01,South,178,0.0,0.0,90,0.00,,---,0.01,VWS V14.01,2013-02-25 07:30:00,
2013-02-24 23:35:00,29.8,27.2,30.01,South,178,0.0,0.0,90,0.00,,---,0.01,VWS V14.01,2013-02-25 07:35:00,
2013-02-24 23:40:00,29.7,27.1,30.01,South,178,0.0,0.0,90,0.00,,---,0.01,VWS V14.01,2013-02-25 07:40:00,
2013-02-24 23:45:00,29.3,26.7,30.01,South,178,0.0,0.0,90,0.00,,---,0.01,VWS V14.01,2013-02-25 07:45:00,
2013-02-24 23:50:00,28.9,26.6,30.01,South,178,0.0,0.0,91,0.00,,---,0.01,VWS V14.01,2013-02-25 07:50:00,
2013-02-24 23:55:00,28.6,26.6,30.01,South,178,0.0,0.0,92,0.00,,---,0.01,VWS V14.01,2013-02-25 07:55:00,